sensor_id;sensor_type;location;lat;lon;timestamp;P1;durP1;ratioP1;P2;durP2;ratioP2
75943;SDS011;64627;46.076;18.238;2022-11-18T00:01:50;55.40;;;13.93;;
75943;SDS011;64627;46.076;18.238;2022-11-18T00:04:34;51.03;;;14.25;;
75943;SDS011;64627;46.076;18.238;2022-11-18T00:07:20;40.28;;;13.30;;
75943;SDS011;64627;46.076;18.238;2022-11-18T00:10:10;49.63;;;12.98;;
75943;SDS011;64627;46.076;18.238;2022-11-18T00:12:54;43.95;;;13.15;;
75943;SDS011;64627;46.076;18.238;2022-11-18T00:16:05;43.97;;;12.85;;
75943;SDS011;64627;46.076;18.238;2022-11-18T00:18:51;47.38;;;12.98;;
75943;SDS011;64627;46.076;18.238;2022-11-18T00:21:42;40.85;;;12.63;;
75943;SDS011;64627;46.076;18.238;2022-11-18T00:24:28;45.47;;;13.80;;
75943;SDS011;64627;46.076;18.238;2022-11-18T00:27:16;38.00;;;13.02;;
75943;SDS011;64627;46.076;18.238;2022-11-18T00:30:00;35.28;;;12.57;;
75943;SDS011;64627;46.076;18.238;2022-11-18T00:32:47;43.90;;;12.85;;
75943;SDS011;64627;46.076;18.238;2022-11-18T00:35:31;41.45;;;14.48;;
75943;SDS011;64627;46.076;18.238;2022-11-18T00:38:15;40.33;;;13.32;;
75943;SDS011;64627;46.076;18.238;2022-11-18T00:41:07;42.47;;;13.95;;
75943;SDS011;64627;46.076;18.238;2022-11-18T00:43:55;55.70;;;13.10;;
75943;SDS011;64627;46.076;18.238;2022-11-18T00:46:46;43.35;;;12.05;;
75943;SDS011;64627;46.076;18.238;2022-11-18T00:49:30;49.40;;;13.55;;
75943;SDS011;64627;46.076;18.238;2022-11-18T00:52:17;42.38;;;13.18;;
75943;SDS011;64627;46.076;18.238;2022-11-18T00:55:08;42.65;;;12.88;;
75943;SDS011;64627;46.076;18.238;2022-11-18T00:57:55;36.70;;;13.43;;
75943;SDS011;64627;46.076;18.238;2022-11-18T01:00:49;42.25;;;12.40;;
75943;SDS011;64627;46.076;18.238;2022-11-18T01:03:37;41.30;;;12.52;;
75943;SDS011;64627;46.076;18.238;2022-11-18T01:06:26;39.60;;;12.07;;
75943;SDS011;64627;46.076;18.238;2022-11-18T01:09:11;38.22;;;12.65;;
75943;SDS011;64627;46.076;18.238;2022-11-18T01:12:03;43.72;;;11.75;;
75943;SDS011;64627;46.076;18.238;2022-11-18T01:15:09;49.97;;;12.00;;
75943;SDS011;64627;46.076;18.238;2022-11-18T01:17:53;55.05;;;10.98;;
75943;SDS011;64627;46.076;18.238;2022-11-18T01:20:38;49.95;;;12.88;;
75943;SDS011;64627;46.076;18.238;2022-11-18T01:23:28;45.50;;;12.30;;
75943;SDS011;64627;46.076;18.238;2022-11-18T01:26:13;46.05;;;11.93;;
75943;SDS011;64627;46.076;18.238;2022-11-18T01:29:03;67.53;;;13.65;;
75943;SDS011;64627;46.076;18.238;2022-11-18T01:31:54;60.63;;;13.48;;
75943;SDS011;64627;46.076;18.238;2022-11-18T01:34:44;38.03;;;12.82;;
75943;SDS011;64627;46.076;18.238;2022-11-18T01:37:36;39.58;;;12.50;;
75943;SDS011;64627;46.076;18.238;2022-11-18T01:40:20;44.22;;;13.95;;
75943;SDS011;64627;46.076;18.238;2022-11-18T01:43:13;30.52;;;12.85;;
75943;SDS011;64627;46.076;18.238;2022-11-18T01:46:00;32.38;;;12.63;;
75943;SDS011;64627;46.076;18.238;2022-11-18T01:48:45;27.50;;;11.30;;
75943;SDS011;64627;46.076;18.238;2022-11-18T01:51:32;28.05;;;11.95;;
75943;SDS011;64627;46.076;18.238;2022-11-18T01:54:29;27.87;;;11.52;;
75943;SDS011;64627;46.076;18.238;2022-11-18T01:57:16;28.17;;;11.98;;
75943;SDS011;64627;46.076;18.238;2022-11-18T02:00:05;27.95;;;11.98;;
75943;SDS011;64627;46.076;18.238;2022-11-18T02:02:50;31.83;;;12.88;;
75943;SDS011;64627;46.076;18.238;2022-11-18T02:05:34;29.33;;;11.45;;
75943;SDS011;64627;46.076;18.238;2022-11-18T02:08:19;32.63;;;12.70;;
75943;SDS011;64627;46.076;18.238;2022-11-18T02:11:08;30.17;;;12.30;;
75943;SDS011;64627;46.076;18.238;2022-11-18T02:14:15;28.75;;;11.15;;
75943;SDS011;64627;46.076;18.238;2022-11-18T02:20:17;36.63;;;13.20;;
75943;SDS011;64627;46.076;18.238;2022-11-18T02:23:10;30.05;;;12.13;;
75943;SDS011;64627;46.076;18.238;2022-11-18T02:26:11;25.55;;;11.52;;
75943;SDS011;64627;46.076;18.238;2022-11-18T02:32:12;28.08;;;11.10;;
75943;SDS011;64627;46.076;18.238;2022-11-18T02:40:40;24.40;;;10.48;;
75943;SDS011;64627;46.076;18.238;2022-11-18T02:43:33;24.63;;;10.10;;
75943;SDS011;64627;46.076;18.238;2022-11-18T02:46:28;30.25;;;12.65;;
75943;SDS011;64627;46.076;18.238;2022-11-18T02:49:21;48.92;;;12.90;;
75943;SDS011;64627;46.076;18.238;2022-11-18T02:52:09;58.10;;;13.57;;
75943;SDS011;64627;46.076;18.238;2022-11-18T02:54:59;37.03;;;12.25;;
75943;SDS011;64627;46.076;18.238;2022-11-18T02:57:43;36.78;;;12.13;;
75943;SDS011;64627;46.076;18.238;2022-11-18T03:00:29;40.05;;;12.23;;
75943;SDS011;64627;46.076;18.238;2022-11-18T03:03:23;47.45;;;11.40;;
75943;SDS011;64627;46.076;18.238;2022-11-18T03:12:27;32.10;;;10.75;;
75943;SDS011;64627;46.076;18.238;2022-11-18T03:21:33;28.33;;;11.43;;
75943;SDS011;64627;46.076;18.238;2022-11-18T03:24:29;30.95;;;10.88;;
75943;SDS011;64627;46.076;18.238;2022-11-18T03:27:17;32.10;;;12.18;;
75943;SDS011;64627;46.076;18.238;2022-11-18T03:30:07;33.65;;;14.35;;
75943;SDS011;64627;46.076;18.238;2022-11-18T03:32:57;38.05;;;12.88;;
75943;SDS011;64627;46.076;18.238;2022-11-18T03:35:45;62.25;;;22.42;;
75943;SDS011;64627;46.076;18.238;2022-11-18T03:38:33;63.30;;;22.00;;
75943;SDS011;64627;46.076;18.238;2022-11-18T03:41:20;77.25;;;12.75;;
75943;SDS011;64627;46.076;18.238;2022-11-18T03:44:12;37.65;;;12.02;;
75943;SDS011;64627;46.076;18.238;2022-11-18T03:47:05;32.30;;;11.85;;
75943;SDS011;64627;46.076;18.238;2022-11-18T03:49:59;26.27;;;10.90;;
75943;SDS011;64627;46.076;18.238;2022-11-18T03:52:48;24.48;;;11.48;;
75943;SDS011;64627;46.076;18.238;2022-11-18T03:55:38;40.65;;;24.75;;
75943;SDS011;64627;46.076;18.238;2022-11-18T03:58:31;27.47;;;11.43;;
75943;SDS011;64627;46.076;18.238;2022-11-18T04:01:39;37.33;;;14.15;;
75943;SDS011;64627;46.076;18.238;2022-11-18T04:04:26;29.27;;;12.98;;
75943;SDS011;64627;46.076;18.238;2022-11-18T04:07:18;26.00;;;12.37;;
75943;SDS011;64627;46.076;18.238;2022-11-18T04:10:07;31.12;;;13.05;;
75943;SDS011;64627;46.076;18.238;2022-11-18T04:15:50;30.33;;;13.40;;
75943;SDS011;64627;46.076;18.238;2022-11-18T04:18:34;36.45;;;13.52;;
75943;SDS011;64627;46.076;18.238;2022-11-18T04:21:18;34.55;;;13.85;;
75943;SDS011;64627;46.076;18.238;2022-11-18T04:24:02;41.75;;;16.98;;
75943;SDS011;64627;46.076;18.238;2022-11-18T04:26:50;39.10;;;16.33;;
75943;SDS011;64627;46.076;18.238;2022-11-18T04:29:36;36.40;;;16.35;;
75943;SDS011;64627;46.076;18.238;2022-11-18T04:32:20;34.83;;;15.35;;
75943;SDS011;64627;46.076;18.238;2022-11-18T04:35:04;34.00;;;15.27;;
75943;SDS011;64627;46.076;18.238;2022-11-18T04:37:49;32.42;;;14.05;;
75943;SDS011;64627;46.076;18.238;2022-11-18T04:40:39;28.05;;;14.23;;
75943;SDS011;64627;46.076;18.238;2022-11-18T04:43:23;34.65;;;17.05;;
75943;SDS011;64627;46.076;18.238;2022-11-18T04:46:21;28.70;;;13.45;;
75943;SDS011;64627;46.076;18.238;2022-11-18T04:49:06;27.05;;;12.18;;
75943;SDS011;64627;46.076;18.238;2022-11-18T04:52:02;28.52;;;12.45;;
75943;SDS011;64627;46.076;18.238;2022-11-18T04:54:47;26.40;;;12.77;;
75943;SDS011;64627;46.076;18.238;2022-11-18T04:57:36;28.23;;;12.82;;
75943;SDS011;64627;46.076;18.238;2022-11-18T05:00:26;33.75;;;13.88;;
75943;SDS011;64627;46.076;18.238;2022-11-18T05:03:16;34.70;;;15.05;;
75943;SDS011;64627;46.076;18.238;2022-11-18T05:06:02;26.45;;;11.35;;
75943;SDS011;64627;46.076;18.238;2022-11-18T05:08:48;26.67;;;12.73;;
75943;SDS011;64627;46.076;18.238;2022-11-18T05:11:32;25.35;;;11.82;;
75943;SDS011;64627;46.076;18.238;2022-11-18T05:14:35;28.92;;;13.20;;
75943;SDS011;64627;46.076;18.238;2022-11-18T05:17:19;30.95;;;12.27;;
75943;SDS011;64627;46.076;18.238;2022-11-18T05:20:03;25.48;;;12.27;;
75943;SDS011;64627;46.076;18.238;2022-11-18T05:22:49;28.23;;;13.30;;
75943;SDS011;64627;46.076;18.238;2022-11-18T05:25:39;26.05;;;13.77;;
75943;SDS011;64627;46.076;18.238;2022-11-18T05:28:37;25.10;;;11.32;;
75943;SDS011;64627;46.076;18.238;2022-11-18T05:31:26;25.60;;;12.80;;
75943;SDS011;64627;46.076;18.238;2022-11-18T05:34:12;23.20;;;11.40;;
75943;SDS011;64627;46.076;18.238;2022-11-18T05:37:09;26.90;;;12.20;;
75943;SDS011;64627;46.076;18.238;2022-11-18T05:40:00;30.35;;;14.18;;
75943;SDS011;64627;46.076;18.238;2022-11-18T05:42:45;26.70;;;12.37;;
75943;SDS011;64627;46.076;18.238;2022-11-18T05:45:49;26.90;;;13.05;;
75943;SDS011;64627;46.076;18.238;2022-11-18T05:48:34;31.95;;;14.25;;
75943;SDS011;64627;46.076;18.238;2022-11-18T05:51:23;30.27;;;12.95;;
75943;SDS011;64627;46.076;18.238;2022-11-18T05:54:08;25.70;;;13.77;;
75943;SDS011;64627;46.076;18.238;2022-11-18T05:56:53;26.55;;;11.40;;
75943;SDS011;64627;46.076;18.238;2022-11-18T05:59:37;27.15;;;12.80;;
75943;SDS011;64627;46.076;18.238;2022-11-18T06:02:22;27.85;;;12.75;;
75943;SDS011;64627;46.076;18.238;2022-11-18T06:05:07;29.42;;;12.20;;
75943;SDS011;64627;46.076;18.238;2022-11-18T06:07:51;28.67;;;12.90;;
75943;SDS011;64627;46.076;18.238;2022-11-18T06:10:39;28.65;;;15.35;;
75943;SDS011;64627;46.076;18.238;2022-11-18T06:13:38;40.63;;;16.83;;
75943;SDS011;64627;46.076;18.238;2022-11-18T06:16:31;41.03;;;17.40;;
75943;SDS011;64627;46.076;18.238;2022-11-18T06:19:24;26.20;;;11.77;;
75943;SDS011;64627;46.076;18.238;2022-11-18T06:22:15;35.13;;;13.88;;
75943;SDS011;64627;46.076;18.238;2022-11-18T06:25:01;19.42;;;10.82;;
75943;SDS011;64627;46.076;18.238;2022-11-18T06:27:52;30.37;;;14.20;;
75943;SDS011;64627;46.076;18.238;2022-11-18T06:30:42;29.75;;;14.73;;
75943;SDS011;64627;46.076;18.238;2022-11-18T06:33:26;24.58;;;11.63;;
75943;SDS011;64627;46.076;18.238;2022-11-18T06:36:18;30.90;;;13.20;;
75943;SDS011;64627;46.076;18.238;2022-11-18T06:39:25;24.77;;;12.25;;
75943;SDS011;64627;46.076;18.238;2022-11-18T06:42:09;23.23;;;11.50;;
75943;SDS011;64627;46.076;18.238;2022-11-18T06:44:54;29.27;;;12.82;;
75943;SDS011;64627;46.076;18.238;2022-11-18T06:47:38;35.63;;;14.98;;
75943;SDS011;64627;46.076;18.238;2022-11-18T06:50:28;38.80;;;15.23;;
75943;SDS011;64627;46.076;18.238;2022-11-18T06:53:12;31.42;;;13.80;;
75943;SDS011;64627;46.076;18.238;2022-11-18T06:56:03;32.17;;;12.98;;
75943;SDS011;64627;46.076;18.238;2022-11-18T06:58:55;32.38;;;14.30;;
75943;SDS011;64627;46.076;18.238;2022-11-18T07:01:40;23.52;;;11.52;;
75943;SDS011;64627;46.076;18.238;2022-11-18T07:04:28;24.48;;;12.80;;
75943;SDS011;64627;46.076;18.238;2022-11-18T07:07:12;36.95;;;13.73;;
75943;SDS011;64627;46.076;18.238;2022-11-18T07:10:02;30.12;;;13.73;;
75943;SDS011;64627;46.076;18.238;2022-11-18T07:12:57;30.27;;;15.47;;
75943;SDS011;64627;46.076;18.238;2022-11-18T07:21:25;22.20;;;11.93;;
75943;SDS011;64627;46.076;18.238;2022-11-18T07:37:27;26.37;;;13.40;;
75943;SDS011;64627;46.076;18.238;2022-11-18T07:40:18;26.52;;;14.05;;
75943;SDS011;64627;46.076;18.238;2022-11-18T07:43:03;33.33;;;17.60;;
75943;SDS011;64627;46.076;18.238;2022-11-18T07:45:51;43.75;;;20.40;;
75943;SDS011;64627;46.076;18.238;2022-11-18T07:48:50;31.05;;;16.17;;
75943;SDS011;64627;46.076;18.238;2022-11-18T07:54:50;46.50;;;19.33;;
75943;SDS011;64627;46.076;18.238;2022-11-18T08:00:58;39.45;;;19.08;;
75943;SDS011;64627;46.076;18.238;2022-11-18T08:03:44;45.25;;;22.60;;
75943;SDS011;64627;46.076;18.238;2022-11-18T08:06:32;37.35;;;19.02;;
75943;SDS011;64627;46.076;18.238;2022-11-18T08:09:17;29.67;;;16.90;;
75943;SDS011;64627;46.076;18.238;2022-11-18T08:12:02;32.85;;;14.77;;
75943;SDS011;64627;46.076;18.238;2022-11-18T08:14:47;28.70;;;12.77;;
75943;SDS011;64627;46.076;18.238;2022-11-18T08:17:36;24.95;;;13.10;;
75943;SDS011;64627;46.076;18.238;2022-11-18T08:47:10;22.85;;;12.07;;
75943;SDS011;64627;46.076;18.238;2022-11-18T08:52:45;25.10;;;12.85;;
75943;SDS011;64627;46.076;18.238;2022-11-18T08:55:30;16.45;;;9.70;;
75943;SDS011;64627;46.076;18.238;2022-11-18T08:58:14;24.83;;;10.70;;
75943;SDS011;64627;46.076;18.238;2022-11-18T09:01:02;20.12;;;10.60;;
75943;SDS011;64627;46.076;18.238;2022-11-18T09:03:48;28.40;;;11.70;;
75943;SDS011;64627;46.076;18.238;2022-11-18T09:09:24;21.15;;;10.85;;
75943;SDS011;64627;46.076;18.238;2022-11-18T09:12:09;23.48;;;9.45;;
75943;SDS011;64627;46.076;18.238;2022-11-18T09:26:54;17.77;;;10.15;;
75943;SDS011;64627;46.076;18.238;2022-11-18T09:29:38;25.15;;;13.43;;
75943;SDS011;64627;46.076;18.238;2022-11-18T09:32:36;24.77;;;13.15;;
75943;SDS011;64627;46.076;18.238;2022-11-18T09:35:20;23.40;;;12.15;;
75943;SDS011;64627;46.076;18.238;2022-11-18T09:38:04;23.77;;;14.00;;
75943;SDS011;64627;46.076;18.238;2022-11-18T09:41:02;24.10;;;12.68;;
75943;SDS011;64627;46.076;18.238;2022-11-18T09:47:33;21.52;;;13.38;;
75943;SDS011;64627;46.076;18.238;2022-11-18T09:50:19;18.10;;;11.45;;
75943;SDS011;64627;46.076;18.238;2022-11-18T09:53:20;19.37;;;11.00;;
75943;SDS011;64627;46.076;18.238;2022-11-18T09:56:09;20.65;;;10.50;;
75943;SDS011;64627;46.076;18.238;2022-11-18T09:58:56;24.05;;;10.57;;
75943;SDS011;64627;46.076;18.238;2022-11-18T10:04:34;35.17;;;14.95;;
75943;SDS011;64627;46.076;18.238;2022-11-18T10:07:25;23.52;;;12.48;;
75943;SDS011;64627;46.076;18.238;2022-11-18T10:10:45;25.30;;;11.60;;
75943;SDS011;64627;46.076;18.238;2022-11-18T11:19:58;26.73;;;11.82;;
75943;SDS011;64627;46.076;18.238;2022-11-18T11:23:17;24.55;;;10.85;;
75943;SDS011;64627;46.076;18.238;2022-11-18T11:29:40;15.30;;;8.50;;
75943;SDS011;64627;46.076;18.238;2022-11-18T11:35:46;18.40;;;10.18;;
75943;SDS011;64627;46.076;18.238;2022-11-18T11:38:37;16.67;;;9.13;;
75943;SDS011;64627;46.076;18.238;2022-11-18T11:55:58;28.80;;;16.05;;
75943;SDS011;64627;46.076;18.238;2022-11-18T12:02:26;38.25;;;22.45;;
75943;SDS011;64627;46.076;18.238;2022-11-18T12:05:35;39.42;;;20.40;;
75943;SDS011;64627;46.076;18.238;2022-11-18T12:08:23;43.70;;;22.62;;
75943;SDS011;64627;46.076;18.238;2022-11-18T12:11:13;41.90;;;21.35;;
75943;SDS011;64627;46.076;18.238;2022-11-18T12:14:44;45.22;;;23.55;;
75943;SDS011;64627;46.076;18.238;2022-11-18T12:17:39;41.58;;;20.77;;
75943;SDS011;64627;46.076;18.238;2022-11-18T12:20:47;53.65;;;29.75;;
75943;SDS011;64627;46.076;18.238;2022-11-18T12:23:25;41.15;;;20.37;;
75943;SDS011;64627;46.076;18.238;2022-11-18T12:26:10;45.22;;;27.00;;
75943;SDS011;64627;46.076;18.238;2022-11-18T12:28:56;32.95;;;20.75;;
75943;SDS011;64627;46.076;18.238;2022-11-18T12:32:02;28.87;;;15.90;;
75943;SDS011;64627;46.076;18.238;2022-11-18T12:38:29;31.23;;;16.40;;
75943;SDS011;64627;46.076;18.238;2022-11-18T12:44:51;37.28;;;16.45;;
75943;SDS011;64627;46.076;18.238;2022-11-18T12:50:48;32.78;;;18.08;;
75943;SDS011;64627;46.076;18.238;2022-11-18T12:53:35;26.35;;;15.82;;
75943;SDS011;64627;46.076;18.238;2022-11-18T12:56:34;37.40;;;19.02;;
75943;SDS011;64627;46.076;18.238;2022-11-18T12:59:34;39.05;;;17.95;;
75943;SDS011;64627;46.076;18.238;2022-11-18T13:05:47;27.90;;;14.43;;
75943;SDS011;64627;46.076;18.238;2022-11-18T13:08:34;27.02;;;15.75;;
75943;SDS011;64627;46.076;18.238;2022-11-18T13:13:53;45.25;;;38.00;;
75943;SDS011;64627;46.076;18.238;2022-11-18T13:17:00;20.52;;;11.30;;
75943;SDS011;64627;46.076;18.238;2022-11-18T13:20:03;22.83;;;12.37;;
75943;SDS011;64627;46.076;18.238;2022-11-18T13:22:51;19.73;;;10.32;;
75943;SDS011;64627;46.076;18.238;2022-11-18T13:43:46;6.78;;;2.12;;
75943;SDS011;64627;46.076;18.238;2022-11-18T13:46:34;2.70;;;1.50;;
75943;SDS011;64627;46.076;18.238;2022-11-18T13:49:30;2.65;;;1.20;;
75943;SDS011;64627;46.076;18.238;2022-11-18T14:10:33;3.80;;;2.10;;
75943;SDS011;64627;46.076;18.238;2022-11-18T14:13:35;4.97;;;2.33;;
75943;SDS011;64627;46.076;18.238;2022-11-18T14:16:42;5.07;;;2.47;;
75943;SDS011;64627;46.076;18.238;2022-11-18T14:19:28;3.28;;;1.60;;
75943;SDS011;64627;46.076;18.238;2022-11-18T14:22:16;3.92;;;2.60;;
75943;SDS011;64627;46.076;18.238;2022-11-18T14:28:27;2.03;;;1.52;;
75943;SDS011;64627;46.076;18.238;2022-11-18T14:31:30;3.67;;;2.00;;
75943;SDS011;64627;46.076;18.238;2022-11-18T14:37:29;2.03;;;1.10;;
75943;SDS011;64627;46.076;18.238;2022-11-18T14:40:19;3.97;;;2.17;;
75943;SDS011;64627;46.076;18.238;2022-11-18T14:43:18;2.60;;;1.63;;
75943;SDS011;64627;46.076;18.238;2022-11-18T14:46:15;3.37;;;2.35;;
75943;SDS011;64627;46.076;18.238;2022-11-18T14:49:00;4.15;;;1.70;;
75943;SDS011;64627;46.076;18.238;2022-11-18T14:51:55;9.88;;;8.35;;
75943;SDS011;64627;46.076;18.238;2022-11-18T14:54:55;7.95;;;3.65;;
75943;SDS011;64627;46.076;18.238;2022-11-18T14:57:47;5.53;;;2.50;;
75943;SDS011;64627;46.076;18.238;2022-11-18T15:00:35;3.50;;;1.50;;
75943;SDS011;64627;46.076;18.238;2022-11-18T15:03:20;5.15;;;2.17;;
75943;SDS011;64627;46.076;18.238;2022-11-18T15:06:17;5.20;;;1.77;;
75943;SDS011;64627;46.076;18.238;2022-11-18T15:09:07;4.72;;;2.72;;
75943;SDS011;64627;46.076;18.238;2022-11-18T15:11:57;5.35;;;2.10;;
75943;SDS011;64627;46.076;18.238;2022-11-18T15:14:45;4.03;;;2.80;;
75943;SDS011;64627;46.076;18.238;2022-11-18T15:17:34;8.27;;;3.10;;
75943;SDS011;64627;46.076;18.238;2022-11-18T15:20:20;6.35;;;3.10;;
75943;SDS011;64627;46.076;18.238;2022-11-18T15:23:12;8.27;;;4.12;;
75943;SDS011;64627;46.076;18.238;2022-11-18T15:26:24;8.38;;;6.30;;
75943;SDS011;64627;46.076;18.238;2022-11-18T15:29:19;4.12;;;2.12;;
75943;SDS011;64627;46.076;18.238;2022-11-18T15:32:11;5.22;;;2.00;;
75943;SDS011;64627;46.076;18.238;2022-11-18T15:35:02;6.57;;;3.90;;
75943;SDS011;64627;46.076;18.238;2022-11-18T15:56:52;5.05;;;2.83;;
75943;SDS011;64627;46.076;18.238;2022-11-18T15:59:45;6.28;;;3.03;;
75943;SDS011;64627;46.076;18.238;2022-11-18T16:02:44;5.57;;;2.78;;
75943;SDS011;64627;46.076;18.238;2022-11-18T16:05:28;5.25;;;3.10;;
75943;SDS011;64627;46.076;18.238;2022-11-18T16:08:16;7.12;;;3.80;;
75943;SDS011;64627;46.076;18.238;2022-11-18T16:11:00;5.72;;;3.67;;
75943;SDS011;64627;46.076;18.238;2022-11-18T16:22:58;5.18;;;2.50;;
75943;SDS011;64627;46.076;18.238;2022-11-18T16:26:00;5.57;;;3.47;;
75943;SDS011;64627;46.076;18.238;2022-11-18T16:29:23;9.48;;;5.15;;
75943;SDS011;64627;46.076;18.238;2022-11-18T16:32:20;10.07;;;4.95;;
75943;SDS011;64627;46.076;18.238;2022-11-18T16:35:13;9.80;;;4.95;;
75943;SDS011;64627;46.076;18.238;2022-11-18T16:38:19;7.97;;;4.53;;
75943;SDS011;64627;46.076;18.238;2022-11-18T16:41:14;12.45;;;6.43;;
75943;SDS011;64627;46.076;18.238;2022-11-18T16:44:21;7.95;;;4.45;;
75943;SDS011;64627;46.076;18.238;2022-11-18T16:47:10;10.13;;;5.50;;
75943;SDS011;64627;46.076;18.238;2022-11-18T16:50:01;9.73;;;4.83;;
75943;SDS011;64627;46.076;18.238;2022-11-18T16:52:52;6.95;;;3.45;;
75943;SDS011;64627;46.076;18.238;2022-11-18T16:55:42;5.97;;;3.28;;
75943;SDS011;64627;46.076;18.238;2022-11-18T16:58:28;13.95;;;4.40;;
75943;SDS011;64627;46.076;18.238;2022-11-18T17:01:13;10.30;;;5.93;;
75943;SDS011;64627;46.076;18.238;2022-11-18T17:04:04;7.75;;;4.50;;
75943;SDS011;64627;46.076;18.238;2022-11-18T17:06:55;9.52;;;4.70;;
75943;SDS011;64627;46.076;18.238;2022-11-18T17:24:31;7.95;;;4.93;;
75943;SDS011;64627;46.076;18.238;2022-11-18T17:56:27;9.23;;;5.55;;
75943;SDS011;64627;46.076;18.238;2022-11-18T17:59:12;6.72;;;4.30;;
75943;SDS011;64627;46.076;18.238;2022-11-18T18:02:00;7.72;;;4.45;;
75943;SDS011;64627;46.076;18.238;2022-11-18T18:04:51;8.32;;;4.37;;
75943;SDS011;64627;46.076;18.238;2022-11-18T18:07:38;6.82;;;3.95;;
75943;SDS011;64627;46.076;18.238;2022-11-18T18:10:29;8.68;;;5.12;;
75943;SDS011;64627;46.076;18.238;2022-11-18T18:13:15;8.52;;;4.22;;
75943;SDS011;64627;46.076;18.238;2022-11-18T18:28:53;11.75;;;5.40;;
75943;SDS011;64627;46.076;18.238;2022-11-18T18:31:39;10.02;;;5.60;;
75943;SDS011;64627;46.076;18.238;2022-11-18T18:34:23;8.95;;;5.65;;
75943;SDS011;64627;46.076;18.238;2022-11-18T18:37:23;6.82;;;4.60;;
75943;SDS011;64627;46.076;18.238;2022-11-18T18:40:08;14.57;;;7.18;;
75943;SDS011;64627;46.076;18.238;2022-11-18T18:43:03;10.30;;;5.53;;
75943;SDS011;64627;46.076;18.238;2022-11-18T18:46:01;11.18;;;5.75;;
75943;SDS011;64627;46.076;18.238;2022-11-18T18:49:12;10.27;;;5.90;;
75943;SDS011;64627;46.076;18.238;2022-11-18T18:52:21;11.23;;;5.68;;
75943;SDS011;64627;46.076;18.238;2022-11-18T18:55:11;9.82;;;5.35;;
75943;SDS011;64627;46.076;18.238;2022-11-18T18:57:56;10.52;;;5.53;;
75943;SDS011;64627;46.076;18.238;2022-11-18T19:00:52;11.18;;;5.85;;
75943;SDS011;64627;46.076;18.238;2022-11-18T19:03:41;10.90;;;5.07;;
75943;SDS011;64627;46.076;18.238;2022-11-18T19:09:10;16.40;;;6.45;;
75943;SDS011;64627;46.076;18.238;2022-11-18T19:12:10;14.95;;;7.80;;
75943;SDS011;64627;46.076;18.238;2022-11-18T19:15:17;15.00;;;7.28;;
75943;SDS011;64627;46.076;18.238;2022-11-18T19:18:14;17.40;;;8.85;;
75943;SDS011;64627;46.076;18.238;2022-11-18T19:21:09;16.58;;;9.05;;
75943;SDS011;64627;46.076;18.238;2022-11-18T19:27:19;12.75;;;7.20;;
75943;SDS011;64627;46.076;18.238;2022-11-18T19:30:04;20.12;;;9.68;;
75943;SDS011;64627;46.076;18.238;2022-11-18T19:32:50;14.73;;;7.93;;
75943;SDS011;64627;46.076;18.238;2022-11-18T19:35:36;14.70;;;7.10;;
75943;SDS011;64627;46.076;18.238;2022-11-18T19:38:27;16.73;;;8.63;;
75943;SDS011;64627;46.076;18.238;2022-11-18T19:41:21;16.70;;;8.27;;
75943;SDS011;64627;46.076;18.238;2022-11-18T19:44:06;15.38;;;8.20;;
75943;SDS011;64627;46.076;18.238;2022-11-18T19:46:57;18.50;;;8.32;;
75943;SDS011;64627;46.076;18.238;2022-11-18T19:49:48;17.08;;;8.43;;
75943;SDS011;64627;46.076;18.238;2022-11-18T19:52:38;20.27;;;8.93;;
75943;SDS011;64627;46.076;18.238;2022-11-18T19:55:29;19.30;;;8.80;;
75943;SDS011;64627;46.076;18.238;2022-11-18T19:58:24;14.30;;;7.03;;
75943;SDS011;64627;46.076;18.238;2022-11-18T20:01:13;19.00;;;8.50;;
75943;SDS011;64627;46.076;18.238;2022-11-18T20:04:05;23.23;;;11.00;;
75943;SDS011;64627;46.076;18.238;2022-11-18T20:06:56;17.77;;;8.43;;
75943;SDS011;64627;46.076;18.238;2022-11-18T20:09:48;17.95;;;8.30;;
75943;SDS011;64627;46.076;18.238;2022-11-18T20:13:30;20.27;;;9.95;;
75943;SDS011;64627;46.076;18.238;2022-11-18T20:16:29;18.27;;;9.48;;
75943;SDS011;64627;46.076;18.238;2022-11-18T20:19:22;17.80;;;8.38;;
75943;SDS011;64627;46.076;18.238;2022-11-18T20:25:48;20.42;;;9.68;;
75943;SDS011;64627;46.076;18.238;2022-11-18T20:28:40;20.77;;;9.30;;
75943;SDS011;64627;46.076;18.238;2022-11-18T20:31:51;16.33;;;8.30;;
75943;SDS011;64627;46.076;18.238;2022-11-18T20:34:55;16.80;;;8.73;;
75943;SDS011;64627;46.076;18.238;2022-11-18T20:41:21;18.08;;;9.20;;
75943;SDS011;64627;46.076;18.238;2022-11-18T20:44:12;18.23;;;8.23;;
75943;SDS011;64627;46.076;18.238;2022-11-18T20:47:43;20.45;;;9.55;;
75943;SDS011;64627;46.076;18.238;2022-11-18T20:54:19;21.50;;;9.95;;
75943;SDS011;64627;46.076;18.238;2022-11-18T20:57:44;18.12;;;8.90;;
75943;SDS011;64627;46.076;18.238;2022-11-18T21:01:15;22.55;;;10.27;;
75943;SDS011;64627;46.076;18.238;2022-11-18T21:04:27;18.70;;;8.55;;
75943;SDS011;64627;46.076;18.238;2022-11-18T21:07:32;17.05;;;8.82;;
75943;SDS011;64627;46.076;18.238;2022-11-18T21:10:51;17.42;;;8.80;;
75943;SDS011;64627;46.076;18.238;2022-11-18T21:21:43;23.40;;;10.43;;
75943;SDS011;64627;46.076;18.238;2022-11-18T21:24:29;18.42;;;8.25;;
75943;SDS011;64627;46.076;18.238;2022-11-18T21:28:01;19.73;;;9.77;;
75943;SDS011;64627;46.076;18.238;2022-11-18T21:31:26;21.52;;;10.98;;
75943;SDS011;64627;46.076;18.238;2022-11-18T21:34:47;17.73;;;9.77;;
75943;SDS011;64627;46.076;18.238;2022-11-18T21:41:25;23.02;;;9.68;;
75943;SDS011;64627;46.076;18.238;2022-11-18T21:44:26;19.08;;;10.13;;
75943;SDS011;64627;46.076;18.238;2022-11-18T21:47:47;17.73;;;9.88;;
75943;SDS011;64627;46.076;18.238;2022-11-18T21:50:42;22.15;;;9.82;;
75943;SDS011;64627;46.076;18.238;2022-11-18T21:53:43;22.83;;;9.70;;
75943;SDS011;64627;46.076;18.238;2022-11-18T21:56:41;20.75;;;10.30;;
75943;SDS011;64627;46.076;18.238;2022-11-18T21:59:47;24.75;;;10.82;;
75943;SDS011;64627;46.076;18.238;2022-11-18T22:02:43;22.73;;;10.20;;
75943;SDS011;64627;46.076;18.238;2022-11-18T22:06:13;20.25;;;10.25;;
75943;SDS011;64627;46.076;18.238;2022-11-18T22:09:27;21.45;;;10.40;;
75943;SDS011;64627;46.076;18.238;2022-11-18T22:12:27;22.83;;;10.55;;
75943;SDS011;64627;46.076;18.238;2022-11-18T22:15:38;24.90;;;11.77;;
75943;SDS011;64627;46.076;18.238;2022-11-18T22:22:11;21.60;;;10.27;;
75943;SDS011;64627;46.076;18.238;2022-11-18T22:24:55;23.27;;;11.27;;
75943;SDS011;64627;46.076;18.238;2022-11-18T22:28:09;20.65;;;11.20;;
75943;SDS011;64627;46.076;18.238;2022-11-18T22:31:35;22.25;;;11.30;;
75943;SDS011;64627;46.076;18.238;2022-11-18T22:38:08;14.68;;;6.68;;
